Time;durP1;ratioP1;P1;durP2;ratioP2;P2;SDS_P1;SDS_P2;PMS_P1;PMS_P2;Temp;Humidity;BMP_temperature;BMP_pressure;BME280_temperature;BME280_humidity;BME280_pressure;Samples;Min_cycle;Max_cycle;Signal;HPM_P1;HPM_P2
2022/12/21 00:01:30;;;;;;;160.25;100.15;;;8.00;99.90;;;;;;5031571;28;20049;-68
2022/12/21 00:04:34;;;;;;;152.40;100.85;;;8.20;99.90;;;;;;5031678;28;20048;-67
2022/12/21 00:07:38;;;;;;;155.55;101.90;;;8.10;99.90;;;;;;5031759;28;20496;-68
2022/12/21 00:10:42;;;;;;;153.77;102.28;;;;;;;;;;5031700;28;20056;-68
2022/12/21 00:13:47;;;;;;;157.07;99.55;;;8.00;99.90;;;;;;5031612;28;20492;-67
2022/12/21 00:16:51;;;;;;;159.02;98.35;;;9.00;99.90;;;;;;5031620;28;20377;-67
2022/12/21 00:19:55;;;;;;;140.32;93.78;;;;;;;;;;5031718;28;20041;-67
2022/12/21 00:22:59;;;;;;;141.85;90.55;;;8.00;99.90;;;;;;5031605;28;20048;-68
2022/12/21 00:26:05;;;;;;;139.00;82.88;;;7.90;99.90;;;;;;5031517;28;20393;-67
2022/12/21 00:29:09;;;;;;;134.23;85.30;;;10.10;99.90;;;;;;5031424;28;20045;-68
2022/12/21 00:32:13;;;;;;;139.10;84.70;;;7.70;99.90;;;;;;5031437;28;20040;-68
2022/12/21 00:35:16;;;;;;;143.88;90.40;;;7.80;99.90;;;;;;5031258;28;20053;-67
2022/12/21 00:38:20;;;;;;;138.75;87.25;;;8.50;99.90;;;;;;5031146;28;20055;-68
2022/12/21 00:41:26;;;;;;;143.50;90.35;;;8.70;99.90;;;;;;5030918;28;20044;-68
2022/12/21 00:44:31;;;;;;;141.85;93.50;;;6.50;99.90;;;;;;5030165;28;20507;-68
2022/12/21 00:47:34;;;;;;;153.23;97.85;;;7.00;99.90;;;;;;5031405;28;20516;-68
2022/12/21 00:50:38;;;;;;;152.55;100.30;;;6.90;99.90;;;;;;5031347;28;20064;-68
2022/12/21 00:53:43;;;;;;;157.15;98.32;;;;;;;;;;5041838;28;20492;-67
2022/12/21 00:56:47;;;;;;;160.18;99.03;;;9.00;99.90;;;;;;5030379;28;20049;-67
2022/12/21 00:59:51;;;;;;;152.95;100.20;;;6.80;99.90;;;;;;5030941;28;20040;-67
2022/12/21 01:02:55;;;;;;;155.07;97.97;;;5.00;99.90;;;;;;5030900;28;20052;-67
2022/12/21 01:05:59;;;;;;;149.88;99.03;;;7.70;99.90;;;;;;5031139;28;20389;-67
2022/12/21 01:09:04;;;;;;;159.20;105.13;;;6.10;99.90;;;;;;5030785;28;20492;-67
2022/12/21 01:12:08;;;;;;;155.10;100.78;;;6.60;99.90;;;;;;5030712;28;20045;-68
2022/12/21 01:15:12;;;;;;;152.63;98.88;;;7.40;99.90;;;;;;5030773;28;20060;-68
2022/12/21 01:18:17;;;;;;;143.27;92.47;;;9.00;99.90;;;;;;5041318;28;20041;-68
2022/12/21 01:21:25;;;;;;;143.32;89.93;;;7.50;99.90;;;;;;5041247;28;20460;-67
2022/12/21 01:24:29;;;;;;;135.18;88.78;;;7.50;99.90;;;;;;5030809;28;20044;-68
2022/12/21 01:27:33;;;;;;;136.65;90.35;;;7.70;99.90;;;;;;5041159;28;20044;-67
2022/12/21 01:30:38;;;;;;;144.15;88.65;;;;;;;;;;5041077;28;20052;-68
2022/12/21 01:33:42;;;;;;;142.77;91.00;;;7.90;99.90;;;;;;5041218;28;20216;-68
2022/12/21 01:36:47;;;;;;;140.95;93.03;;;7.80;99.90;;;;;;5041058;28;20045;-68
2022/12/21 01:39:51;;;;;;;136.93;89.78;;;8.50;99.90;;;;;;5030840;28;20049;-68
2022/12/21 01:42:55;;;;;;;137.30;89.07;;;9.20;99.90;;;;;;5029802;28;20064;-67
2022/12/21 01:45:59;;;;;;;139.10;88.20;;;9.70;99.90;;;;;;5030584;28;20048;-67
2022/12/21 01:49:28;;;;;;;131.57;84.78;;;8.40;99.90;;;;;;5040996;28;20068;-68
2022/12/21 01:52:32;;;;;;;129.93;84.20;;;8.30;99.90;;;;;;5030454;28;20048;-68
2022/12/21 01:55:37;;;;;;;111.68;75.95;;;6.30;99.90;;;;;;5040663;28;20061;-68
2022/12/21 01:58:41;;;;;;;113.50;75.57;;;6.10;99.90;;;;;;5029675;28;20088;-67
2022/12/21 02:01:46;;;;;;;127.65;79.03;;;;;;;;;;5040547;28;20049;-68
2022/12/21 02:04:52;;;;;;;119.22;76.32;;;6.80;99.90;;;;;;5041176;28;20516;-67
2022/12/21 02:07:59;;;;;;;113.65;68.75;;;7.30;99.90;;;;;;5030357;28;20428;-68
2022/12/21 02:11:04;;;;;;;118.82;70.68;;;6.90;99.90;;;;;;5033247;28;20048;-68
2022/12/21 02:14:15;;;;;;;111.00;68.55;;;7.00;99.90;;;;;;5033789;28;20397;-67
2022/12/21 02:17:39;;;;;;;;;;;7.60;99.90;;;;;;5033403;28;20535;-67
2022/12/21 02:21:11;;;;;;;91.07;50.53;;;8.30;99.90;;;;;;5033806;28;19936;-67
2022/12/21 02:24:46;;;;;;;93.35;57.03;;;7.10;99.90;;;;;;5033598;28;20049;-67
2022/12/21 02:28:38;;;;;;;81.50;49.03;;;5.80;99.90;;;;;;5033606;28;20037;-67
2022/12/21 02:31:55;;;;;;;87.18;56.13;;;5.90;99.90;;;;;;5033233;28;20037;-67
2022/12/21 02:35:15;;;;;;;96.47;56.25;;;6.60;99.90;;;;;;5044022;28;20040;-68
2022/12/21 02:38:27;;;;;;;;;;;6.90;99.90;;;;;;5044531;28;20040;-67
2022/12/21 02:41:30;;;;;;;85.00;54.90;;;;;;;;;;5033116;28;19928;-67
2022/12/21 02:44:35;;;;;;;85.45;54.17;;;;;;;;;;5032630;28;20044;-67
2022/12/21 02:47:49;;;;;;;81.10;53.95;;;4.40;99.90;;;;;;5033401;28;20044;-68
2022/12/21 02:50:57;;;;;;;84.25;54.60;;;7.70;99.90;;;;;;5043981;28;20032;-67
2022/12/21 02:54:01;;;;;;;86.15;54.25;;;;;;;;;;5032328;28;20053;-68
2022/12/21 02:57:07;;;;;;;83.78;52.92;;;7.90;99.90;;;;;;5044003;28;20048;-67
2022/12/21 03:00:15;;;;;;;92.90;52.85;;;6.90;99.90;;;;;;5043616;28;20048;-67
2022/12/21 03:03:48;;;;;;;79.35;50.80;;;6.80;99.90;;;;;;5032112;28;20401;-68
2022/12/21 03:06:58;;;;;;;81.00;50.40;;;7.20;99.90;;;;;;5032228;28;20041;-67
2022/12/21 03:10:54;;;;;;;79.75;50.03;;;7.80;99.90;;;;;;5043580;28;20048;-67
2022/12/21 03:14:09;;;;;;;80.57;50.88;;;6.80;99.90;;;;;;5025752;28;20037;-67
2022/12/21 03:17:32;;;;;;;80.75;49.03;;;6.70;99.90;;;;;;5043291;28;20508;-67
2022/12/21 03:21:00;;;;;;;74.13;47.58;;;6.60;99.90;;;;;;5031172;28;20045;-67
2022/12/21 03:24:19;;;;;;;75.70;48.03;;;6.70;99.90;;;;;;5033196;28;20528;-67
2022/12/21 03:27:28;;;;;;;74.43;48.42;;;6.40;99.90;;;;;;5032695;28;20042;-67
2022/12/21 03:30:40;;;;;;;79.03;45.80;;;6.90;99.90;;;;;;5032595;28;20052;-67
2022/12/21 03:33:47;;;;;;;65.32;43.95;;;;;;;;;;5032559;28;20389;-67
2022/12/21 03:36:57;;;;;;;69.60;44.72;;;;;;;;;;5032367;28;20052;-67
2022/12/21 03:40:10;;;;;;;68.97;42.45;;;6.80;99.90;;;;;;5032230;28;20053;-67
2022/12/21 03:43:21;;;;;;;61.35;41.47;;;;;;;;;;5032219;28;20048;-68
2022/12/21 03:46:30;;;;;;;66.60;40.15;;;6.60;99.90;;;;;;5032358;28;20056;-67
2022/12/21 03:49:44;;;;;;;62.47;38.42;;;6.40;99.90;;;;;;5031973;28;20045;-67
2022/12/21 03:53:27;;;;;;;61.58;38.97;;;6.80;99.90;;;;;;5032129;28;20049;-68
2022/12/21 03:56:34;;;;;;;64.70;39.13;;;5.30;99.90;;;;;;5021550;28;20039;-67
2022/12/21 03:59:40;;;;;;;62.28;38.35;;;;;;;;;;5032036;28;20045;-68
2022/12/21 04:02:45;;;;;;;61.28;37.13;;;;;;;;;;5031652;28;20060;-68
2022/12/21 04:06:12;;;;;;;61.25;37.03;;;6.30;99.90;;;;;;5031750;28;20048;-67
2022/12/21 04:09:16;;;;;;;64.50;37.88;;;6.30;99.90;;;;;;5031810;28;20056;-67
2022/12/21 04:12:36;;;;;;;58.85;36.72;;;;;;;;;;5031568;28;20307;-67
2022/12/21 04:29:13;;;;;;;62.22;35.00;;;;;;;;;;5031380;28;20044;-66
2022/12/21 04:32:17;;;;;;;65.50;35.97;;;;;;;;;;5030806;28;20044;-66
2022/12/21 04:35:22;;;;;;;54.40;31.75;;;;;;;;;;5031441;28;20048;-67
2022/12/21 04:38:27;;;;;;;53.30;32.47;;;6.50;99.90;;;;;;5031343;28;20049;-67
2022/12/21 04:41:32;;;;;;;54.45;32.65;;;;;;;;;;5030948;28;20048;-66
2022/12/21 04:44:36;;;;;;;57.45;31.30;;;;;;;;;;5030817;28;20041;-68
2022/12/21 04:47:41;;;;;;;52.30;30.83;;;;;;;;;;5030997;28;20045;-68
2022/12/21 04:50:45;;;;;;;46.20;29.80;;;;;;;;;;5031037;28;20101;-68
2022/12/21 04:53:50;;;;;;;47.42;28.35;;;6.30;99.90;;;;;;5031051;28;20048;-68
2022/12/21 04:56:54;;;;;;;52.17;27.63;;;;;;;;;;5030659;28;20060;-68
2022/12/21 04:59:58;;;;;;;46.03;26.77;;;;;;;;;;5031300;28;20040;-68
2022/12/21 05:03:03;;;;;;;47.47;26.35;;;;;;;;;;5030690;28;20492;-68
2022/12/21 05:06:09;;;;;;;38.53;24.42;;;7.60;99.90;;;;;;5030935;28;20040;-68
2022/12/21 05:09:13;;;;;;;39.05;23.85;;;;;;;;;;5030924;28;20048;-68
2022/12/21 05:12:17;;;;;;;40.33;22.95;;;5.70;99.90;;;;;;5030644;28;20037;-68
2022/12/21 05:15:22;;;;;;;37.17;22.65;;;;;;;;;;5031022;28;20052;-67
2022/12/21 05:18:27;;;;;;;43.25;25.00;;;;;;;;;;5030887;28;20156;-67
2022/12/21 05:21:32;;;;;;;41.17;23.88;;;;;;;;;;5030780;28;20056;-67
2022/12/21 05:24:36;;;;;;;39.42;24.67;;;;;;;;;;5030606;28;20068;-67
2022/12/21 05:27:40;;;;;;;41.15;24.30;;;;;;;;;;5030521;28;20207;-67
2022/12/21 05:30:45;;;;;;;35.90;22.67;;;;;;;;;;5030972;28;20044;-67
2022/12/21 05:33:49;;;;;;;46.45;24.27;;;;;;;;;;5029963;28;20052;-68
2022/12/21 05:36:53;;;;;;;41.85;23.23;;;;;;;;;;5030777;28;20429;-68
2022/12/21 05:39:58;;;;;;;49.42;24.13;;;;;;;;;;5031026;28;20506;-68
2022/12/21 05:43:03;;;;;;;39.95;22.40;;;6.20;99.90;;;;;;5030318;28;20124;-68
2022/12/21 05:46:08;;;;;;;39.30;23.35;;;;;;;;;;5034374;28;20044;-67
2022/12/21 05:49:13;;;;;;;34.55;21.55;;;;;;;;;;5034301;28;20060;-67
2022/12/21 05:52:17;;;;;;;36.92;20.27;;;;;;;;;;5034447;28;20044;-67
2022/12/21 05:55:21;;;;;;;35.10;21.50;;;;;;;;;;5033977;28;20044;-67
2022/12/21 05:58:25;;;;;;;36.78;23.63;;;;;;;;;;5033441;28;20512;-67
2022/12/21 06:01:30;;;;;;;33.53;21.00;;;;;;;;;;5033987;28;20052;-66
2022/12/21 06:04:34;;;;;;;37.10;22.55;;;;;;;;;;5033932;28;20041;-66
2022/12/21 06:07:38;;;;;;;36.70;22.05;;;;;;;;;;5033929;28;20044;-67
2022/12/21 06:10:44;;;;;;;34.83;21.00;;;;;;;;;;5033851;28;20462;-67
2022/12/21 06:13:48;;;;;;;38.78;21.02;;;4.50;99.90;;;;;;5033946;28;20056;-67
2022/12/21 06:16:52;;;;;;;39.60;22.98;;;;;;;;;;5033019;28;20599;-67
2022/12/21 06:19:57;;;;;;;36.03;22.55;;;;;;;;;;5044159;28;20048;-67
2022/12/21 06:23:01;;;;;;;34.35;22.05;;;;;;;;;;5033378;28;20072;-67
2022/12/21 06:26:06;;;;;;;35.80;23.55;;;;;;;;;;5033768;28;20040;-66
2022/12/21 06:29:10;;;;;;;39.60;23.80;;;;;;;;;;5033722;28;20064;-68
2022/12/21 06:32:14;;;;;;;35.70;24.65;;;;;;;;;;5033304;28;20040;-67
2022/12/21 06:35:18;;;;;;;46.00;27.17;;;;;;;;;;5043914;28;20045;-68
2022/12/21 06:38:23;;;;;;;42.88;26.63;;;;;;;;;;5033147;28;20029;-67
2022/12/21 06:41:27;;;;;;;41.65;26.73;;;7.00;99.90;;;;;;5043539;28;20060;-68
2022/12/21 06:44:32;;;;;;;50.60;29.25;;;;;;;;;;5032965;28;20295;-67
2022/12/21 06:47:36;;;;;;;43.80;27.40;;;;;;;;;;5032928;28;20053;-68
2022/12/21 06:50:41;;;;;;;50.97;29.60;;;;;;;;;;5033069;28;20044;-68
2022/12/21 06:53:46;;;;;;;48.50;31.42;;;;;;;;;;5032910;28;20048;-67
2022/12/21 06:56:50;;;;;;;47.55;31.25;;;;;;;;;;5031267;28;20053;-67
2022/12/21 06:59:54;;;;;;;50.67;33.35;;;;;;;;;;5032075;28;20045;-67
2022/12/21 07:02:58;;;;;;;57.03;34.13;;;;;;;;;;5032322;28;20064;-67
2022/12/21 07:06:03;;;;;;;57.63;38.08;;;;;;;;;;5032737;28;20061;-67
2022/12/21 07:09:09;;;;;;;62.35;38.55;;;7.60;99.90;;;;;;5032774;28;20064;-68
2022/12/21 07:12:14;;;;;;;58.25;37.55;;;7.10;99.90;;;;;;5032307;28;20052;-68
2022/12/21 07:15:18;;;;;;;63.20;39.80;;;8.00;99.90;;;;;;5032543;28;20041;-67
2022/12/21 07:18:23;;;;;;;59.17;39.60;;;7.20;99.90;;;;;;5032474;28;20070;-68
2022/12/21 07:21:26;;;;;;;67.85;42.22;;;9.20;99.90;;;;;;5032424;28;20052;-68
2022/12/21 07:24:30;;;;;;;63.03;41.05;;;8.20;99.90;;;;;;5032026;28;20531;-67
2022/12/21 07:27:34;;;;;;;57.38;40.88;;;6.60;99.90;;;;;;5032000;28;20069;-67
2022/12/21 07:30:38;;;;;;;61.95;41.15;;;7.50;99.90;;;;;;5031425;28;20056;-66
2022/12/21 07:33:42;;;;;;;63.90;40.63;;;6.30;99.90;;;;;;5031928;28;20036;-65
2022/12/21 07:36:46;;;;;;;58.20;38.70;;;8.90;99.90;;;;;;5032278;28;20064;-67
2022/12/21 07:39:50;;;;;;;55.80;37.40;;;7.50;99.90;;;;;;5032407;28;20060;-66
2022/12/21 07:42:55;;;;;;;59.33;36.63;;;;;;;;;;5031591;28;20064;-66
2022/12/21 07:46:20;;;;;;;55.35;33.60;;;7.20;99.90;;;;;;5042636;28;20036;-67
2022/12/21 07:49:25;;;;;;;53.45;33.72;;;8.60;99.90;;;;;;5043287;28;20056;-67
2022/12/21 07:52:33;;;;;;;61.00;35.15;;;7.70;99.90;;;;;;5031835;28;20064;-67
2022/12/21 07:55:37;;;;;;;49.35;34.75;;;7.90;99.90;;;;;;5031681;28;20060;-68
2022/12/21 07:58:41;;;;;;;56.38;32.53;;;8.00;99.90;;;;;;5031470;28;20056;-68
2022/12/21 08:01:45;;;;;;;55.33;32.45;;;7.60;99.90;;;;;;5031511;28;20060;-67
2022/12/21 08:04:49;;;;;;;56.28;35.13;;;7.30;99.90;;;;;;5031814;28;20401;-67
2022/12/21 08:07:53;;;;;;;54.03;34.72;;;7.10;99.90;;;;;;5030715;28;20056;-68
2022/12/21 08:10:57;;;;;;;60.42;33.53;;;;;;;;;;5031647;28;20041;-69
2022/12/21 08:14:01;;;;;;;56.30;33.13;;;;;;;;;;5031402;28;20052;-68
2022/12/21 08:17:05;;;;;;;58.80;34.30;;;9.20;99.90;;;;;;5031443;28;20049;-68
2022/12/21 08:20:09;;;;;;;64.13;34.72;;;8.90;99.90;;;;;;5031207;28;20049;-67
2022/12/21 08:23:14;;;;;;;73.55;40.78;;;9.20;99.90;;;;;;5031008;28;20065;-68
2022/12/21 08:26:18;;;;;;;66.80;38.13;;;9.30;99.90;;;;;;5031162;28;20401;-69
2022/12/21 08:29:22;;;;;;;56.95;35.13;;;;;;;;;;5031218;28;20048;-67
2022/12/21 08:32:26;;;;;;;52.97;32.45;;;9.90;99.90;;;;;;5031411;28;20048;-68
2022/12/21 08:35:31;;;;;;;51.22;29.98;;;;;;;;;;5030869;28;20397;-68
2022/12/21 08:38:34;;;;;;;46.95;31.48;;;;;;;;;;5031053;28;20048;-68
2022/12/21 08:41:39;;;;;;;43.90;30.10;;;;;;;;;;5030894;28;20461;-67
2022/12/21 08:44:43;;;;;;;40.05;27.33;;;10.70;99.90;;;;;;5030861;28;20056;-68
2022/12/21 08:47:48;;;;;;;41.42;27.92;;;11.30;99.90;;;;;;5031264;28;20524;-70
2022/12/21 08:50:52;;;;;;;40.40;26.02;;;11.40;99.90;;;;;;5030569;28;20045;-69
2022/12/21 08:53:56;;;;;;;40.90;25.85;;;11.60;99.90;;;;;;5030799;28;20040;-69
2022/12/21 08:57:00;;;;;;;40.28;25.98;;;11.70;99.90;;;;;;5031075;28;20052;-68
2022/12/21 09:00:09;;;;;;;38.72;25.77;;;11.70;99.90;;;;;;5030691;28;20041;-67
2022/12/21 09:03:13;;;;;;;43.78;26.83;;;11.70;99.90;;;;;;5030990;28;20072;-67
2022/12/21 09:06:18;;;;;;;40.22;25.17;;;13.60;99.90;;;;;;5030881;28;20049;-68
2022/12/21 09:09:22;;;;;;;42.78;25.30;;;;;;;;;;5030987;28;20044;-68
2022/12/21 09:12:27;;;;;;;35.63;25.02;;;11.00;99.90;;;;;;5030956;28;20520;-67
2022/12/21 09:15:32;;;;;;;37.42;25.42;;;;;;;;;;5030629;28;20056;-68
2022/12/21 09:18:36;;;;;;;43.17;25.17;;;13.10;99.90;;;;;;5032531;28;20036;-67
2022/12/21 09:21:41;;;;;;;47.75;27.65;;;;;;;;;;5034388;28;20049;-68
2022/12/21 09:24:45;;;;;;;52.88;31.52;;;13.50;99.90;;;;;;5034750;28;20040;-68
2022/12/21 09:27:49;;;;;;;52.25;33.30;;;;;;;;;;5034941;28;20040;-69
2022/12/21 09:30:53;;;;;;;56.63;33.97;;;14.00;99.90;;;;;;5045307;28;20401;-67
2022/12/21 09:33:57;;;;;;;57.53;34.30;;;12.00;99.90;;;;;;5034710;28;20485;-70
2022/12/21 09:37:02;;;;;;;54.60;32.85;;;;;;;;;;5034306;28;20060;-69
2022/12/21 09:40:10;;;;;;;46.60;30.52;;;14.30;99.90;;;;;;5034867;28;20048;-66
2022/12/21 09:43:43;;;;;;;54.40;31.40;;;14.50;99.90;;;;;;5034330;28;20052;-68
2022/12/21 09:46:53;;;;;;;44.38;29.52;;;14.60;99.90;;;;;;5034310;28;20045;-68
2022/12/21 09:50:01;;;;;;;51.17;30.00;;;14.90;99.90;;;;;;5033987;28;20052;-70
2022/12/21 09:53:12;;;;;;;47.65;29.38;;;15.00;99.70;;;;;;5033302;28;20204;-69
2022/12/21 09:56:23;;;;;;;39.03;26.73;;;15.40;99.70;;;;;;5033246;28;20500;-70
2022/12/21 09:59:27;;;;;;;38.85;26.52;;;15.40;99.70;;;;;;5034366;28;20060;-69
2022/12/21 10:03:01;;;;;;;40.03;26.42;;;18.20;99.70;;;;;;5033962;28;20508;-68
2022/12/21 10:06:25;;;;;;;43.80;26.40;;;17.80;99.70;;;;;;5007863;28;20397;-69
2022/12/21 10:09:59;;;;;;;41.97;26.60;;;18.30;99.60;;;;;;5033855;28;20044;-69
2022/12/21 10:13:21;;;;;;;36.53;23.75;;;15.90;99.10;;;;;;5033808;28;20311;-68
2022/12/21 10:16:46;;;;;;;32.10;18.25;;;16.20;98.40;;;;;;5033956;28;20052;-66
2022/12/21 10:20:10;;;;;;;29.67;18.00;;;16.30;97.80;;;;;;5033868;28;20048;-69
2022/12/21 10:23:27;;;;;;;21.48;14.20;;;16.20;97.10;;;;;;5033645;28;20621;-68
2022/12/21 10:26:35;;;;;;;14.75;9.73;;;16.30;97.20;;;;;;5033519;28;20056;-68
2022/12/21 10:29:45;;;;;;;13.38;8.45;;;16.40;97.10;;;;;;5032504;28;20028;-69
2022/12/21 10:32:50;;;;;;;12.85;9.05;;;15.40;96.50;;;;;;5033393;28;20532;-68
2022/12/21 10:36:03;;;;;;;13.38;9.60;;;16.50;96.30;;;;;;5033239;28;20037;-69
2022/12/21 10:39:13;;;;;;;13.90;9.60;;;16.50;96.70;;;;;;5033562;28;20056;-68
2022/12/21 10:42:38;;;;;;;15.10;9.20;;;16.60;96.30;;;;;;5033426;28;20060;-69
2022/12/21 10:45:42;;;;;;;18.30;9.48;;;16.60;96.50;;;;;;5033055;28;20041;-68
2022/12/21 10:48:49;;;;;;;11.77;8.90;;;16.70;96.00;;;;;;5033038;28;20048;-69
2022/12/21 10:51:52;;;;;;;13.48;9.55;;;16.70;96.00;;;;;;5033152;28;20049;-68
2022/12/21 10:54:56;;;;;;;16.20;10.40;;;16.60;96.10;;;;;;5032678;28;20072;-67
2022/12/21 10:58:00;;;;;;;15.00;9.75;;;16.60;96.40;;;;;;5033241;28;20048;-68
2022/12/21 11:01:16;;;;;;;14.82;10.20;;;16.70;96.10;;;;;;5032989;28;20501;-68
2022/12/21 11:04:23;;;;;;;14.70;9.55;;;16.70;95.90;;;;;;5032879;28;20516;-68
2022/12/21 11:07:30;;;;;;;16.45;10.55;;;16.70;95.70;;;;;;5032826;28;20048;-68
2022/12/21 11:10:35;;;;;;;16.02;9.98;;;16.70;95.70;;;;;;5032546;28;20492;-69
2022/12/21 11:13:40;;;;;;;12.38;9.05;;;16.60;95.60;;;;;;5032819;28;20045;-68
2022/12/21 11:16:45;;;;;;;13.23;9.48;;;16.50;95.30;;;;;;5032897;28;20064;-69
2022/12/21 11:20:00;;;;;;;14.43;9.07;;;16.50;95.50;;;;;;5032299;28;20041;-68
2022/12/21 11:23:05;;;;;;;11.00;7.25;;;16.50;96.00;;;;;;5031807;28;20508;-67
2022/12/21 11:26:15;;;;;;;9.70;7.28;;;16.50;96.10;;;;;;5032872;28;20064;-67
2022/12/21 11:29:28;;;;;;;14.57;9.50;;;16.40;96.10;;;;;;5032692;28;20044;-70
2022/12/21 11:32:33;;;;;;;14.60;9.30;;;16.40;96.20;;;;;;5032536;28;20049;-68
2022/12/21 11:35:37;;;;;;;15.20;9.68;;;16.30;95.40;;;;;;5032440;28;20445;-68
2022/12/21 11:38:42;;;;;;;16.60;9.07;;;16.20;95.50;;;;;;5031825;28;20587;-69
2022/12/21 11:41:51;;;;;;;12.75;9.07;;;16.10;95.80;;;;;;5031818;28;20040;-68
2022/12/21 11:45:18;;;;;;;11.63;8.25;;;16.10;96.20;;;;;;5032306;28;20405;-68
2022/12/21 11:48:47;;;;;;;14.65;9.05;;;16.10;96.60;;;;;;5031938;28;20511;-68
2022/12/21 11:51:54;;;;;;;12.02;9.38;;;16.00;96.50;;;;;;5030297;28;20060;-70
2022/12/21 11:55:24;;;;;;;13.80;9.13;;;15.90;96.60;;;;;;5030356;28;20061;-69
2022/12/21 11:59:19;;;;;;;12.52;8.88;;;15.80;96.50;;;;;;5030286;28;20056;-69
2022/12/21 12:02:50;;;;;;;15.75;9.70;;;15.80;96.50;;;;;;5030225;28;20052;-70
2022/12/21 12:06:15;;;;;;;15.80;10.02;;;15.70;96.50;;;;;;5031614;28;20052;-70
2022/12/21 12:10:27;;;;;;;15.07;10.52;;;15.70;96.60;;;;;;5031513;28;20049;-69
2022/12/21 12:13:49;;;;;;;27.50;14.98;;;15.70;96.80;;;;;;4989977;28;20052;-70
2022/12/21 12:17:11;;;;;;;17.00;12.70;;;15.60;96.50;;;;;;5031857;28;20037;-70
2022/12/21 12:20:46;;;;;;;12.88;10.00;;;15.50;96.40;;;;;;5031177;28;20048;-70
2022/12/21 12:24:08;;;;;;;14.60;9.63;;;15.50;96.70;;;;;;5031213;28;20068;-70
2022/12/21 12:27:26;;;;;;;12.77;9.93;;;15.50;96.90;;;;;;5031559;28;20049;-70
2022/12/21 12:30:56;;;;;;;16.65;11.35;;;15.60;97.20;;;;;;5031390;28;20036;-69
2022/12/21 12:34:20;;;;;;;12.73;9.95;;;15.50;97.10;;;;;;5030640;28;20397;-70
2022/12/21 12:37:30;;;;;;;13.38;10.45;;;15.50;96.90;;;;;;5031666;28;20501;-70
2022/12/21 12:40:37;;;;;;;14.52;10.30;;;15.50;96.90;;;;;;5031123;28;20033;-70
2022/12/21 12:44:10;;;;;;;12.82;9.30;;;15.50;97.00;;;;;;5031220;28;20044;-70
2022/12/21 12:47:24;;;;;;;12.90;9.90;;;15.40;97.20;;;;;;5031249;28;20045;-69
2022/12/21 12:50:58;;;;;;;14.50;10.68;;;15.40;97.40;;;;;;5031022;28;20229;-69
2022/12/21 12:54:14;;;;;;;18.23;10.88;;;15.40;97.30;;;;;;5030774;28;20041;-70
2022/12/21 12:57:27;;;;;;;12.60;9.75;;;15.40;97.10;;;;;;5030947;28;20045;-69
2022/12/21 13:00:57;;;;;;;12.95;9.00;;;15.40;97.10;;;;;;5031060;28;20093;-70
2022/12/21 13:04:25;;;;;;;22.45;11.20;;;15.30;97.10;;;;;;5030830;28;20143;-69
2022/12/21 13:07:38;;;;;;;14.88;10.18;;;15.40;96.90;;;;;;5031048;28;20123;-70
2022/12/21 13:10:54;;;;;;;12.38;9.00;;;15.30;96.50;;;;;;5041465;28;20049;-70
2022/12/21 13:14:26;;;;;;;13.93;9.75;;;15.30;96.70;;;;;;5030301;28;20397;-70
2022/12/21 13:18:12;;;;;;;17.15;10.75;;;15.30;96.90;;;;;;5031066;28;20045;-69
2022/12/21 13:21:20;;;;;;;14.90;8.40;;;15.30;97.00;;;;;;4992518;28;20142;-69
2022/12/21 13:24:33;;;;;;;12.73;8.68;;;15.30;97.10;;;;;;5030935;28;20048;-69
2022/12/21 13:27:42;;;;;;;12.07;8.65;;;15.30;97.20;;;;;;5031213;28;20117;-68
2022/12/21 13:30:49;;;;;;;14.10;9.50;;;15.20;97.20;;;;;;5030543;28;20064;-68
2022/12/21 13:34:00;;;;;;;11.85;8.63;;;15.20;97.20;;;;;;5029883;28;20044;-68
2022/12/21 13:37:16;;;;;;;11.18;8.30;;;15.10;97.20;;;;;;5030055;28;20040;-68
2022/12/21 13:40:43;;;;;;;11.98;8.43;;;15.20;97.40;;;;;;5030565;28;20048;-69
2022/12/21 13:44:10;;;;;;;13.55;8.63;;;15.10;97.50;;;;;;5030281;28;20339;-70
2022/12/21 13:47:16;;;;;;;12.32;8.20;;;15.10;97.40;;;;;;5030747;28;20053;-72
2022/12/21 13:50:23;;;;;;;14.45;9.30;;;15.10;97.40;;;;;;5030747;28;20095;-72
2022/12/21 13:53:45;;;;;;;8.85;7.38;;;15.10;97.50;;;;;;5030951;28;20041;-72
2022/12/21 13:57:14;;;;;;;13.70;9.25;;;15.10;97.60;;;;;;5030283;28;20056;-72
2022/12/21 14:00:33;;;;;;;11.15;7.88;;;15.10;97.70;;;;;;5040787;28;20060;-72
2022/12/21 14:04:05;;;;;;;13.88;9.38;;;15.00;97.80;;;;;;5030067;28;20064;-70
2022/12/21 14:07:36;;;;;;;17.60;10.77;;;15.00;97.90;;;;;;5033497;28;20044;-72
2022/12/21 14:10:47;;;;;;;12.68;9.00;;;15.00;98.10;;;;;;5033991;28;20064;-72
2022/12/21 14:13:51;;;;;;;18.80;11.23;;;15.00;98.30;;;;;;5034091;28;20049;-70
2022/12/21 14:17:03;;;;;;;14.18;9.93;;;14.90;98.30;;;;;;5034124;28;20068;-69
2022/12/21 14:20:17;;;;;;;12.90;9.60;;;14.90;98.40;;;;;;5033656;28;20041;-71
2022/12/21 14:23:29;;;;;;;15.50;8.70;;;14.90;98.40;;;;;;5033839;28;20409;-70
2022/12/21 14:26:51;;;;;;;10.73;8.10;;;14.80;98.50;;;;;;5033894;28;20037;-73
2022/12/21 14:30:15;;;;;;;13.38;7.78;;;14.80;98.60;;;;;;5033637;28;20052;-69
2022/12/21 14:33:40;;;;;;;18.05;10.82;;;14.80;98.50;;;;;;5032646;28;20044;-69
2022/12/21 14:37:10;;;;;;;16.60;11.43;;;14.80;98.60;;;;;;5033676;28;20045;-68
2022/12/21 14:40:23;;;;;;;17.60;11.48;;;14.70;98.80;;;;;;5033170;28;20044;-71
2022/12/21 14:43:27;;;;;;;17.52;11.35;;;14.70;98.80;;;;;;5033187;28;20041;-69
2022/12/21 14:46:31;;;;;;;17.63;11.38;;;14.70;98.80;;;;;;5033245;28;20056;-68
2022/12/21 14:49:44;;;;;;;15.15;10.55;;;14.60;98.90;;;;;;5033446;28;20045;-69
2022/12/21 14:53:01;;;;;;;16.95;11.10;;;14.60;99.00;;;;;;5033057;28;20048;-68
2022/12/21 14:56:15;;;;;;;17.27;10.38;;;14.50;99.10;;;;;;5032911;28;20512;-69
2022/12/21 14:59:19;;;;;;;18.20;11.45;;;14.50;99.30;;;;;;5033163;28;20068;-67
2022/12/21 15:02:24;;;;;;;19.20;12.10;;;14.40;99.50;;;;;;5033060;28;20036;-68
2022/12/21 15:05:40;;;;;;;27.45;12.93;;;14.40;99.70;;;;;;5032926;28;20045;-68
2022/12/21 15:08:46;;;;;;;18.00;12.52;;;14.40;99.90;;;;;;5033164;28;20496;-69
2022/12/21 15:12:22;;;;;;;19.00;11.93;;;14.30;99.90;;;;;;5032704;28;20037;-67
2022/12/21 15:15:33;;;;;;;17.02;10.30;;;14.40;99.90;;;;;;5032515;28;20049;-68
2022/12/21 15:18:43;;;;;;;19.30;11.02;;;14.40;99.90;;;;;;5032142;28;20100;-68
2022/12/21 15:22:15;;;;;;;18.95;12.38;;;14.30;99.90;;;;;;5044914;28;20522;-69
2022/12/21 15:25:24;;;;;;;26.88;14.88;;;14.30;99.90;;;;;;5033036;28;20508;-69
2022/12/21 15:28:35;;;;;;;26.70;14.63;;;14.30;99.90;;;;;;5031928;28;20045;-71
2022/12/21 15:31:43;;;;;;;25.48;13.85;;;14.30;99.90;;;;;;5032365;28;20045;-71
2022/12/21 15:34:53;;;;;;;22.40;14.65;;;14.20;99.90;;;;;;5032596;28;20048;-70
2022/12/21 15:38:03;;;;;;;47.20;25.63;;;14.20;99.90;;;;;;5032617;28;20040;-70
2022/12/21 15:41:39;;;;;;;56.45;32.55;;;14.20;99.90;;;;;;5032146;28;20052;-71
2022/12/21 15:44:51;;;;;;;87.93;52.30;;;14.00;99.90;;;;;;5031793;28;20060;-74
2022/12/21 15:48:02;;;;;;;85.88;51.88;;;13.90;99.90;;;;;;5031442;28;20052;-70
2022/12/21 15:51:25;;;;;;;73.25;43.05;;;13.90;99.90;;;;;;5042599;28;20052;-70
2022/12/21 15:54:29;;;;;;;46.22;27.70;;;13.80;99.90;;;;;;5032603;28;20052;-69
2022/12/21 15:57:38;;;;;;;37.15;24.52;;;13.80;99.90;;;;;;5031604;28;20041;-72
2022/12/21 16:00:46;;;;;;;54.15;24.92;;;13.70;99.90;;;;;;5031622;28;20048;-70
2022/12/21 16:03:50;;;;;;;44.85;24.73;;;13.70;99.90;;;;;;5031926;28;20068;-71
2022/12/21 16:06:58;;;;;;;43.03;26.02;;;13.70;99.90;;;;;;5031777;28;20105;-72
2022/12/21 16:10:05;;;;;;;54.50;28.55;;;13.60;99.90;;;;;;5031664;28;20068;-73
2022/12/21 16:13:10;;;;;;;48.90;27.33;;;13.60;99.90;;;;;;5031524;28;20040;-71
2022/12/21 16:16:17;;;;;;;52.58;29.42;;;13.50;99.90;;;;;;5030996;28;20056;-74
2022/12/21 16:19:28;;;;;;;49.65;28.63;;;13.60;99.90;;;;;;5031568;28;20040;-72
2022/12/21 16:22:36;;;;;;;54.72;29.55;;;13.60;99.90;;;;;;5031553;28;20064;-72
2022/12/21 16:25:42;;;;;;;52.88;31.70;;;13.50;99.90;;;;;;5030606;28;20048;-74
2022/12/21 16:29:08;;;;;;;48.65;26.02;;;13.50;99.90;;;;;;5030387;28;20052;-70
2022/12/21 16:32:13;;;;;;;43.70;24.70;;;13.50;99.90;;;;;;5031231;28;20402;-71
2022/12/21 16:35:26;;;;;;;42.22;24.50;;;13.50;99.90;;;;;;5031106;28;20101;-72
2022/12/21 16:38:36;;;;;;;38.40;24.52;;;13.60;99.90;;;;;;5031462;28;20053;-70
2022/12/21 16:41:41;;;;;;;42.22;25.40;;;13.60;99.90;;;;;;5031242;28;20398;-71
2022/12/21 16:44:46;;;;;;;53.47;32.22;;;13.60;99.90;;;;;;5031197;28;20060;-71
2022/12/21 16:48:15;;;;;;;69.05;38.78;;;13.60;99.90;;;;;;5031533;28;20049;-68
2022/12/21 16:51:40;;;;;;;52.25;31.95;;;13.60;99.90;;;;;;5030738;28;20048;-69
2022/12/21 16:54:45;;;;;;;48.05;30.48;;;13.50;99.90;;;;;;5041714;28;20389;-69